sensor_id;sensor_type;location;lat;lon;timestamp;pressure;altitude;pressure_sealevel;temperature;humidity
5883;BME280;2967;51.488;6.618;2023-03-21T00:19:41;100974.78;;;8.89;100.00
5883;BME280;2967;51.488;6.618;2023-03-21T00:33:25;100986.28;;;9.03;100.00
5883;BME280;2967;51.488;6.618;2023-03-21T00:38:31;101206.16;;;10.31;100.00
5883;BME280;2967;51.488;6.618;2023-03-21T00:43:35;101186.97;;;10.12;100.00
5883;BME280;2967;51.488;6.618;2023-03-21T00:48:38;101209.72;;;10.30;100.00
5883;BME280;2967;51.488;6.618;2023-03-21T00:53:48;101412.16;;;11.12;100.00
5883;BME280;2967;51.488;6.618;2023-03-21T00:58:53;101096.78;;;9.56;100.00
5883;BME280;2967;51.488;6.618;2023-03-21T01:03:58;101196.78;;;10.25;100.00
5883;BME280;2967;51.488;6.618;2023-03-21T01:09:12;101371.56;;;11.27;100.00
5883;BME280;2967;51.488;6.618;2023-03-21T01:14:17;101339.19;;;10.93;100.00
5883;BME280;2967;51.488;6.618;2023-03-21T01:19:25;101195.16;;;10.23;100.00
5883;BME280;2967;51.488;6.618;2023-03-21T01:24:47;101368.69;;;11.01;100.00
5883;BME280;2967;51.488;6.618;2023-03-21T01:30:04;101320.84;;;10.74;100.00
5883;BME280;2967;51.488;6.618;2023-03-21T01:35:20;101174.34;;;10.17;100.00
5883;BME280;2967;51.488;6.618;2023-03-21T01:40:40;101257.53;;;10.71;100.00
5883;BME280;2967;51.488;6.618;2023-03-21T01:46:27;101352.44;;;11.22;100.00
5883;BME280;2967;51.488;6.618;2023-03-21T01:53:12;101244.84;;;10.76;100.00
5883;BME280;2967;51.488;6.618;2023-03-21T01:59:10;100951.81;;;9.06;100.00
5883;BME280;2967;51.488;6.618;2023-03-21T02:05:39;101154.06;;;10.17;100.00
5883;BME280;2967;51.488;6.618;2023-03-21T02:11:25;101343.97;;;11.45;100.00
5883;BME280;2967;51.488;6.618;2023-03-21T02:17:23;100896.22;;;8.63;100.00
5883;BME280;2967;51.488;6.618;2023-03-21T02:23:23;101287.38;;;11.32;100.00
5883;BME280;2967;51.488;6.618;2023-03-21T02:28:37;101318.63;;;11.55;100.00
5883;BME280;2967;51.488;6.618;2023-03-21T02:33:58;100990.66;;;9.49;100.00
5883;BME280;2967;51.488;6.618;2023-03-21T02:39:13;101243.16;;;11.05;100.00
5883;BME280;2967;51.488;6.618;2023-03-21T02:44:34;101306.22;;;11.42;100.00
5883;BME280;2967;51.488;6.618;2023-03-21T02:49:43;100951.44;;;9.43;100.00
5883;BME280;2967;51.488;6.618;2023-03-21T02:54:52;101163.69;;;10.77;100.00
5883;BME280;2967;51.488;6.618;2023-03-21T03:00:01;101136.97;;;10.52;100.00
5883;BME280;2967;51.488;6.618;2023-03-21T03:05:26;100992.25;;;9.67;100.00
5883;BME280;2967;51.488;6.618;2023-03-21T03:10:47;101108.34;;;10.44;100.00
5883;BME280;2967;51.488;6.618;2023-03-21T03:16:03;100943.78;;;9.39;100.00
5883;BME280;2967;51.488;6.618;2023-03-21T03:21:17;100886.31;;;9.13;100.00
5883;BME280;2967;51.488;6.618;2023-03-21T03:26:54;101274.81;;;11.50;100.00
5883;BME280;2967;51.488;6.618;2023-03-21T03:32:35;101205.50;;;11.00;100.00
5883;BME280;2967;51.488;6.618;2023-03-21T03:37:41;101253.31;;;11.26;100.00
5883;BME280;2967;51.488;6.618;2023-03-21T03:42:56;101041.41;;;10.15;100.00
5883;BME280;2967;51.488;6.618;2023-03-21T03:48:15;100923.22;;;9.44;100.00
5883;BME280;2967;51.488;6.618;2023-03-21T03:53:54;100814.22;;;8.83;100.00
5883;BME280;2967;51.488;6.618;2023-03-21T03:59:04;101134.16;;;10.55;100.00
5883;BME280;2967;51.488;6.618;2023-03-21T04:04:35;100942.88;;;9.54;100.00
5883;BME280;2967;51.488;6.618;2023-03-21T04:09:41;101079.91;;;10.34;100.00
5883;BME280;2967;51.488;6.618;2023-03-21T04:20:57;101206.31;;;11.16;100.00
5883;BME280;2967;51.488;6.618;2023-03-21T04:26:12;100949.84;;;9.55;100.00
5883;BME280;2967;51.488;6.618;2023-03-21T04:32:11;100998.50;;;9.80;100.00
5883;BME280;2967;51.488;6.618;2023-03-21T04:37:29;100904.03;;;9.26;100.00
5883;BME280;2967;51.488;6.618;2023-03-21T04:42:35;101149.78;;;10.73;100.00
5883;BME280;2967;51.488;6.618;2023-03-21T04:47:40;101068.25;;;10.23;100.00
5883;BME280;2967;51.488;6.618;2023-03-21T04:52:43;101015.16;;;9.82;100.00
5883;BME280;2967;51.488;6.618;2023-03-21T04:57:47;101229.81;;;11.06;100.00
5883;BME280;2967;51.488;6.618;2023-03-21T05:02:51;101235.13;;;11.06;100.00
5883;BME280;2967;51.488;6.618;2023-03-21T05:07:54;101251.00;;;11.06;100.00
5883;BME280;2967;51.488;6.618;2023-03-21T05:13:00;101240.69;;;11.02;100.00
5883;BME280;2967;51.488;6.618;2023-03-21T05:18:08;101232.25;;;10.95;100.00
5883;BME280;2967;51.488;6.618;2023-03-21T05:31:05;101153.63;;;10.54;100.00
5883;BME280;2967;51.488;6.618;2023-03-21T05:36:15;101130.53;;;10.42;100.00
5883;BME280;2967;51.488;6.618;2023-03-21T05:41:19;101021.59;;;9.92;100.00
5883;BME280;2967;51.488;6.618;2023-03-21T05:46:27;100941.81;;;9.42;100.00
5883;BME280;2967;51.488;6.618;2023-03-21T05:51:32;101165.47;;;10.62;100.00
5883;BME280;2967;51.488;6.618;2023-03-21T05:56:35;101164.06;;;10.71;100.00
5883;BME280;2967;51.488;6.618;2023-03-21T06:01:41;101225.09;;;10.97;100.00
5883;BME280;2967;51.488;6.618;2023-03-21T06:07:00;101170.75;;;10.62;100.00
5883;BME280;2967;51.488;6.618;2023-03-21T06:12:10;101053.88;;;9.97;100.00
5883;BME280;2967;51.488;6.618;2023-03-21T06:17:38;101218.59;;;11.03;100.00
5883;BME280;2967;51.488;6.618;2023-03-21T06:22:52;101109.22;;;10.45;100.00
5883;BME280;2967;51.488;6.618;2023-03-21T06:28:04;101062.03;;;10.24;100.00
5883;BME280;2967;51.488;6.618;2023-03-21T06:33:43;101108.66;;;10.54;100.00
5883;BME280;2967;51.488;6.618;2023-03-21T06:38:48;100999.19;;;9.84;100.00
5883;BME280;2967;51.488;6.618;2023-03-21T06:43:52;101151.91;;;10.82;100.00
5883;BME280;2967;51.488;6.618;2023-03-21T06:48:55;101215.50;;;11.38;100.00
5883;BME280;2967;51.488;6.618;2023-03-21T06:54:03;101115.88;;;10.66;100.00
5883;BME280;2967;51.488;6.618;2023-03-21T06:59:18;101200.25;;;11.42;100.00
5883;BME280;2967;51.488;6.618;2023-03-21T07:04:28;101203.78;;;11.42;100.00
5883;BME280;2967;51.488;6.618;2023-03-21T07:09:33;101208.97;;;11.44;100.00
5883;BME280;2967;51.488;6.618;2023-03-21T07:14:38;101200.25;;;11.42;100.00
5883;BME280;2967;51.488;6.618;2023-03-21T07:19:41;100980.63;;;10.15;100.00
5883;BME280;2967;51.488;6.618;2023-03-21T07:24:47;101130.75;;;11.10;100.00
5883;BME280;2967;51.488;6.618;2023-03-21T07:30:11;101177.75;;;11.49;100.00
5883;BME280;2967;51.488;6.618;2023-03-21T07:35:16;101203.22;;;11.65;100.00
5883;BME280;2967;51.488;6.618;2023-03-21T07:40:20;101155.88;;;11.45;100.00
5883;BME280;2967;51.488;6.618;2023-03-21T07:45:24;101062.03;;;10.95;100.00
5883;BME280;2967;51.488;6.618;2023-03-21T07:50:32;101194.31;;;11.80;100.00
5883;BME280;2967;51.488;6.618;2023-03-21T07:55:40;101181.44;;;11.74;100.00
5883;BME280;2967;51.488;6.618;2023-03-21T08:00:46;100853.88;;;9.70;100.00
5883;BME280;2967;51.488;6.618;2023-03-21T08:05:59;101206.41;;;11.84;100.00
5883;BME280;2967;51.488;6.618;2023-03-21T08:11:06;101200.44;;;11.81;100.00
5883;BME280;2967;51.488;6.618;2023-03-21T08:16:28;100766.09;;;9.23;100.00
5883;BME280;2967;51.488;6.618;2023-03-21T08:22:04;101217.78;;;11.86;100.00
5883;BME280;2967;51.488;6.618;2023-03-21T08:27:08;100917.72;;;10.06;100.00
5883;BME280;2967;51.488;6.618;2023-03-21T08:32:11;100805.94;;;9.48;100.00
5883;BME280;2967;51.488;6.618;2023-03-21T08:37:14;101212.28;;;11.89;100.00
5883;BME280;2967;51.488;6.618;2023-03-21T08:42:19;101219.84;;;11.95;100.00
5883;BME280;2967;51.488;6.618;2023-03-21T08:47:22;101222.13;;;12.01;100.00
5883;BME280;2967;51.488;6.618;2023-03-21T08:52:26;101212.09;;;11.92;100.00
5883;BME280;2967;51.488;6.618;2023-03-21T08:57:30;101046.25;;;11.07;100.00
5883;BME280;2967;51.488;6.618;2023-03-21T09:02:33;100990.84;;;10.76;100.00
5883;BME280;2967;51.488;6.618;2023-03-21T09:07:37;100971.59;;;10.60;100.00
5883;BME280;2967;51.488;6.618;2023-03-21T09:12:42;101230.56;;;11.94;100.00
5883;BME280;2967;51.488;6.618;2023-03-21T09:17:44;101000.22;;;10.68;100.00
5883;BME280;2967;51.488;6.618;2023-03-21T09:22:50;101063.13;;;11.19;100.00
5883;BME280;2967;51.488;6.618;2023-03-21T09:27:55;101200.84;;;12.15;100.00
5883;BME280;2967;51.488;6.618;2023-03-21T09:32:59;101052.13;;;11.39;100.00
5883;BME280;2967;51.488;6.618;2023-03-21T09:38:04;101033.03;;;11.34;100.00
5883;BME280;2967;51.488;6.618;2023-03-21T09:43:18;101178.53;;;12.32;100.00
5883;BME280;2967;51.488;6.618;2023-03-21T09:48:32;101203.31;;;12.45;100.00
5883;BME280;2967;51.488;6.618;2023-03-21T09:53:41;101064.47;;;11.66;100.00
5883;BME280;2967;51.488;6.618;2023-03-21T09:58:47;101197.94;;;12.59;100.00
5883;BME280;2967;51.488;6.618;2023-03-21T10:03:55;101117.06;;;12.13;100.00
5883;BME280;2967;51.488;6.618;2023-03-21T10:09:05;101101.03;;;12.14;100.00
5883;BME280;2967;51.488;6.618;2023-03-21T10:14:16;101180.63;;;12.53;100.00
5883;BME280;2967;51.488;6.618;2023-03-21T10:19:20;101008.59;;;11.57;100.00
5883;BME280;2967;51.488;6.618;2023-03-21T10:24:25;101017.50;;;11.42;100.00
5883;BME280;2967;51.488;6.618;2023-03-21T10:29:39;100984.31;;;11.36;100.00
5883;BME280;2967;51.488;6.618;2023-03-21T10:34:45;101114.72;;;12.08;100.00
5883;BME280;2967;51.488;6.618;2023-03-21T10:39:51;101135.69;;;12.38;100.00
5883;BME280;2967;51.488;6.618;2023-03-21T10:44:56;101124.78;;;12.42;100.00
5883;BME280;2967;51.488;6.618;2023-03-21T10:50:01;101118.66;;;12.54;100.00
5883;BME280;2967;51.488;6.618;2023-03-21T10:55:18;101118.97;;;12.62;100.00
5883;BME280;2967;51.488;6.618;2023-03-21T11:00:27;101047.63;;;12.33;100.00
5883;BME280;2967;51.488;6.618;2023-03-21T11:05:35;101001.19;;;12.01;100.00
5883;BME280;2967;51.488;6.618;2023-03-21T11:10:51;101098.78;;;12.60;100.00
5883;BME280;2967;51.488;6.618;2023-03-21T11:15:57;100857.97;;;11.12;100.00
5883;BME280;2967;51.488;6.618;2023-03-21T11:21:08;101096.50;;;12.80;100.00
5883;BME280;2967;51.488;6.618;2023-03-21T11:26:17;100932.81;;;12.06;100.00
5883;BME280;2967;51.488;6.618;2023-03-21T11:31:40;101058.38;;;12.81;100.00
5883;BME280;2967;51.488;6.618;2023-03-21T11:36:49;101083.31;;;13.16;100.00
5883;BME280;2967;51.488;6.618;2023-03-21T11:41:52;101072.91;;;13.13;100.00
5883;BME280;2967;51.488;6.618;2023-03-21T11:46:57;100940.66;;;12.32;100.00
5883;BME280;2967;51.488;6.618;2023-03-21T11:52:13;101032.03;;;13.03;100.00
5883;BME280;2967;51.488;6.618;2023-03-21T11:57:25;101025.84;;;13.03;100.00
5883;BME280;2967;51.488;6.618;2023-03-21T12:03:03;100846.91;;;11.96;100.00
5883;BME280;2967;51.488;6.618;2023-03-21T12:08:18;100918.16;;;12.63;100.00
5883;BME280;2967;51.488;6.618;2023-03-21T12:13:39;101049.03;;;13.49;100.00
5883;BME280;2967;51.488;6.618;2023-03-21T12:18:59;101046.81;;;13.43;100.00
5883;BME280;2967;51.488;6.618;2023-03-21T12:24:08;101025.41;;;13.21;100.00
5883;BME280;2967;51.488;6.618;2023-03-21T12:29:27;100914.63;;;12.75;100.00
5883;BME280;2967;51.488;6.618;2023-03-21T12:34:52;101031.66;;;13.56;100.00
5883;BME280;2967;51.488;6.618;2023-03-21T12:40:06;100907.88;;;12.94;100.00
5883;BME280;2967;51.488;6.618;2023-03-21T12:45:14;101032.25;;;13.72;100.00
5883;BME280;2967;51.488;6.618;2023-03-21T12:50:24;101021.44;;;13.86;100.00
5883;BME280;2967;51.488;6.618;2023-03-21T12:55:29;100995.31;;;13.80;100.00
5883;BME280;2967;51.488;6.618;2023-03-21T13:00:37;100997.41;;;13.87;100.00
5883;BME280;2967;51.488;6.618;2023-03-21T13:05:48;100697.25;;;12.12;100.00
5883;BME280;2967;51.488;6.618;2023-03-21T13:10:51;100744.47;;;12.67;100.00
5883;BME280;2967;51.488;6.618;2023-03-21T13:16:08;100771.22;;;13.11;100.00
5883;BME280;2967;51.488;6.618;2023-03-21T13:21:17;100768.94;;;13.17;100.00
5883;BME280;2967;51.488;6.618;2023-03-21T13:26:31;100942.03;;;14.38;100.00
5883;BME280;2967;51.488;6.618;2023-03-21T13:31:43;100879.81;;;14.06;100.00
5883;BME280;2967;51.488;6.618;2023-03-21T13:36:55;100944.84;;;14.58;100.00
5883;BME280;2967;51.488;6.618;2023-03-21T13:42:03;100933.00;;;14.73;100.00
5883;BME280;2967;51.488;6.618;2023-03-21T13:47:23;100948.97;;;14.73;100.00
5883;BME280;2967;51.488;6.618;2023-03-21T13:52:30;100910.72;;;14.52;100.00
5883;BME280;2967;51.488;6.618;2023-03-21T13:57:37;100954.66;;;14.91;100.00
5883;BME280;2967;51.488;6.618;2023-03-21T14:02:52;100871.03;;;14.38;100.00
5883;BME280;2967;51.488;6.618;2023-03-21T14:08:00;100915.19;;;14.63;100.00
5883;BME280;2967;51.488;6.618;2023-03-21T14:13:26;100761.69;;;13.86;100.00
5883;BME280;2967;51.488;6.618;2023-03-21T14:18:40;100889.56;;;14.51;100.00
5883;BME280;2967;51.488;6.618;2023-03-21T14:23:59;100906.72;;;14.47;100.00
5883;BME280;2967;51.488;6.618;2023-03-21T14:29:03;100734.47;;;13.28;100.00
5883;BME280;2967;51.488;6.618;2023-03-21T14:34:18;100893.41;;;14.25;100.00
5883;BME280;2967;51.488;6.618;2023-03-21T14:39:26;100862.91;;;14.18;100.00
5883;BME280;2967;51.488;6.618;2023-03-21T14:44:32;100751.06;;;13.75;100.00
5883;BME280;2967;51.488;6.618;2023-03-21T14:49:54;100617.31;;;12.98;100.00
5883;BME280;2967;51.488;6.618;2023-03-21T14:55:04;100730.25;;;13.80;100.00
5883;BME280;2967;51.488;6.618;2023-03-21T15:00:24;100914.09;;;14.87;100.00
5883;BME280;2967;51.488;6.618;2023-03-21T15:06:00;100617.06;;;13.23;100.00
5883;BME280;2967;51.488;6.618;2023-03-21T15:16:43;100878.97;;;14.93;100.00
5883;BME280;2967;51.488;6.618;2023-03-21T15:21:48;100880.56;;;14.85;100.00
5883;BME280;2967;51.488;6.618;2023-03-21T15:26:59;100880.09;;;14.80;100.00
5883;BME280;2967;51.488;6.618;2023-03-21T15:32:15;100707.06;;;13.82;100.00
5883;BME280;2967;51.488;6.618;2023-03-21T15:37:22;100694.97;;;13.78;100.00
5883;BME280;2967;51.488;6.618;2023-03-21T15:42:46;100735.94;;;13.87;100.00
5883;BME280;2967;51.488;6.618;2023-03-21T15:48:34;100868.13;;;14.52;100.00
5883;BME280;2967;51.488;6.618;2023-03-21T15:53:42;100851.81;;;14.35;100.00
5883;BME280;2967;51.488;6.618;2023-03-21T15:58:52;100821.66;;;13.90;100.00
5883;BME280;2967;51.488;6.618;2023-03-21T16:04:07;100641.13;;;12.87;100.00
5883;BME280;2967;51.488;6.618;2023-03-21T16:09:15;100868.13;;;14.30;100.00
5883;BME280;2967;51.488;6.618;2023-03-21T16:14:26;100879.13;;;14.81;100.00
5883;BME280;2967;51.488;6.618;2023-03-21T16:19:36;100711.25;;;14.40;100.00
5883;BME280;2967;51.488;6.618;2023-03-21T16:30:11;100734.75;;;14.02;100.00
5883;BME280;2967;51.488;6.618;2023-03-21T16:35:26;100873.56;;;14.62;100.00
5883;BME280;2967;51.488;6.618;2023-03-21T16:40:38;100497.00;;;12.30;100.00
5883;BME280;2967;51.488;6.618;2023-03-21T16:45:44;100879.38;;;14.34;100.00
5883;BME280;2967;51.488;6.618;2023-03-21T16:50:53;100871.28;;;14.24;100.00
5883;BME280;2967;51.488;6.618;2023-03-21T16:55:56;100847.06;;;14.05;100.00
5883;BME280;2967;51.488;6.618;2023-03-21T17:01:19;100861.91;;;14.08;100.00
5883;BME280;2967;51.488;6.618;2023-03-21T17:06:30;100816.47;;;13.78;100.00
5883;BME280;2967;51.488;6.618;2023-03-21T17:11:35;100508.50;;;11.73;100.00
5883;BME280;2967;51.488;6.618;2023-03-21T17:16:44;100723.88;;;13.05;100.00
5883;BME280;2967;51.488;6.618;2023-03-21T17:21:54;100779.63;;;13.28;100.00
5883;BME280;2967;51.488;6.618;2023-03-21T17:26:59;100640.41;;;12.51;100.00
5883;BME280;2967;51.488;6.618;2023-03-21T17:32:30;100907.88;;;13.99;100.00
5883;BME280;2967;51.488;6.618;2023-03-21T17:37:41;100905.56;;;13.94;100.00
5883;BME280;2967;51.488;6.618;2023-03-21T17:42:57;100907.09;;;13.97;100.00
5883;BME280;2967;51.488;6.618;2023-03-21T17:48:02;100833.28;;;13.44;100.00
5883;BME280;2967;51.488;6.618;2023-03-21T17:53:09;100888.72;;;13.83;100.00
5883;BME280;2967;51.488;6.618;2023-03-21T17:58:15;100557.06;;;11.84;100.00
5883;BME280;2967;51.488;6.618;2023-03-21T18:03:23;100818.03;;;13.35;100.00
5883;BME280;2967;51.488;6.618;2023-03-21T18:08:47;100647.50;;;12.39;100.00
5883;BME280;2967;51.488;6.618;2023-03-21T18:14:03;100821.91;;;13.42;100.00
5883;BME280;2967;51.488;6.618;2023-03-21T18:19:21;100698.63;;;12.65;100.00
5883;BME280;2967;51.488;6.618;2023-03-21T18:24:25;100692.41;;;12.53;100.00
5883;BME280;2967;51.488;6.618;2023-03-21T18:29:30;100816.41;;;13.21;100.00
5883;BME280;2967;51.488;6.618;2023-03-21T18:34:56;100852.25;;;13.50;100.00
5883;BME280;2967;51.488;6.618;2023-03-21T18:40:07;100836.91;;;13.19;100.00
5883;BME280;2967;51.488;6.618;2023-03-21T18:45:32;100919.00;;;13.69;100.00
5883;BME280;2967;51.488;6.618;2023-03-21T18:50:58;100854.16;;;13.37;100.00
5883;BME280;2967;51.488;6.618;2023-03-21T19:02:46;100830.09;;;13.05;100.00
5883;BME280;2967;51.488;6.618;2023-03-21T19:08:27;100733.44;;;12.60;100.00
5883;BME280;2967;51.488;6.618;2023-03-21T19:13:31;100884.03;;;13.52;100.00
5883;BME280;2967;51.488;6.618;2023-03-21T19:25:30;100722.38;;;12.66;100.00
5883;BME280;2967;51.488;6.618;2023-03-21T19:31:26;100876.34;;;13.60;100.00
5883;BME280;2967;51.488;6.618;2023-03-21T19:36:46;100786.31;;;13.10;100.00
5883;BME280;2967;51.488;6.618;2023-03-21T19:41:56;100733.53;;;12.82;100.00
5883;BME280;2967;51.488;6.618;2023-03-21T19:47:16;100725.63;;;12.70;100.00
5883;BME280;2967;51.488;6.618;2023-03-21T19:52:24;100874.09;;;13.43;100.00
5883;BME280;2967;51.488;6.618;2023-03-21T19:57:28;100830.59;;;13.10;100.00
5883;BME280;2967;51.488;6.618;2023-03-21T20:02:33;100708.31;;;12.30;100.00
5883;BME280;2967;51.488;6.618;2023-03-21T20:07:37;100670.44;;;12.04;100.00
5883;BME280;2967;51.488;6.618;2023-03-21T20:12:42;100689.19;;;12.14;100.00
5883;BME280;2967;51.488;6.618;2023-03-21T20:17:45;100811.78;;;12.89;100.00
5883;BME280;2967;51.488;6.618;2023-03-21T20:22:50;100533.13;;;11.14;100.00
5883;BME280;2967;51.488;6.618;2023-03-21T20:28:09;100845.19;;;13.04;100.00
5883;BME280;2967;51.488;6.618;2023-03-21T20:33:27;100856.81;;;13.14;100.00
5883;BME280;2967;51.488;6.618;2023-03-21T20:38:32;100778.84;;;12.68;100.00
5883;BME280;2967;51.488;6.618;2023-03-21T20:43:37;100787.94;;;12.77;100.00
5883;BME280;2967;51.488;6.618;2023-03-21T20:49:01;100465.03;;;10.67;100.00
5883;BME280;2967;51.488;6.618;2023-03-21T20:54:07;100763.22;;;12.53;100.00
5883;BME280;2967;51.488;6.618;2023-03-21T20:59:11;100791.38;;;12.66;100.00
5883;BME280;2967;51.488;6.618;2023-03-21T21:04:27;100760.31;;;12.56;100.00
5883;BME280;2967;51.488;6.618;2023-03-21T21:10:04;100858.75;;;13.12;100.00
5883;BME280;2967;51.488;6.618;2023-03-21T21:15:29;100852.38;;;13.15;100.00
5883;BME280;2967;51.488;6.618;2023-03-21T21:20:35;100696.25;;;12.26;100.00
5883;BME280;2967;51.488;6.618;2023-03-21T21:25:39;100862.75;;;13.18;100.00
5883;BME280;2967;51.488;6.618;2023-03-21T21:30:44;100856.38;;;13.20;100.00
5883;BME280;2967;51.488;6.618;2023-03-21T21:36:06;100864.84;;;13.25;100.00
5883;BME280;2967;51.488;6.618;2023-03-21T21:41:22;100851.41;;;13.16;100.00
5883;BME280;2967;51.488;6.618;2023-03-21T21:46:28;100802.78;;;12.79;100.00
5883;BME280;2967;51.488;6.618;2023-03-21T21:51:33;100581.13;;;11.58;100.00
5883;BME280;2967;51.488;6.618;2023-03-21T21:56:42;100850.88;;;13.11;100.00
5883;BME280;2967;51.488;6.618;2023-03-21T22:01:55;100538.25;;;11.40;100.00
5883;BME280;2967;51.488;6.618;2023-03-21T22:06:59;100828.81;;;13.10;100.00
5883;BME280;2967;51.488;6.618;2023-03-21T22:12:07;100775.44;;;12.66;100.00
5883;BME280;2967;51.488;6.618;2023-03-21T22:17:14;100675.50;;;12.07;100.00
5883;BME280;2967;51.488;6.618;2023-03-21T22:22:17;100672.06;;;11.94;100.00
5883;BME280;2967;51.488;6.618;2023-03-21T22:27:21;100625.91;;;11.73;100.00
5883;BME280;2967;51.488;6.618;2023-03-21T22:32:28;100542.63;;;11.16;100.00
5883;BME280;2967;51.488;6.618;2023-03-21T22:37:36;100624.75;;;11.52;100.00
5883;BME280;2967;51.488;6.618;2023-03-21T22:42:46;100461.13;;;10.48;100.00
5883;BME280;2967;51.488;6.618;2023-03-21T22:48:17;100663.09;;;11.72;100.00
5883;BME280;2967;51.488;6.618;2023-03-21T22:53:25;100836.44;;;12.79;100.00
5883;BME280;2967;51.488;6.618;2023-03-21T22:58:28;100555.03;;;11.16;100.00
5883;BME280;2967;51.488;6.618;2023-03-21T23:03:34;100825.50;;;12.83;100.00
5883;BME280;2967;51.488;6.618;2023-03-21T23:08:46;100825.72;;;12.80;100.00
5883;BME280;2967;51.488;6.618;2023-03-21T23:13:51;100811.25;;;12.84;100.00
5883;BME280;2967;51.488;6.618;2023-03-21T23:19:19;100817.91;;;12.90;100.00
5883;BME280;2967;51.488;6.618;2023-03-21T23:24:50;100504.53;;;11.06;100.00
5883;BME280;2967;51.488;6.618;2023-03-21T23:30:15;100721.25;;;12.34;100.00
5883;BME280;2967;51.488;6.618;2023-03-21T23:35:30;100409.28;;;10.45;100.00
5883;BME280;2967;51.488;6.618;2023-03-21T23:40:39;100412.88;;;10.57;100.00
5883;BME280;2967;51.488;6.618;2023-03-21T23:45:51;100779.34;;;12.73;100.00
5883;BME280;2967;51.488;6.618;2023-03-21T23:51:17;100330.44;;;9.90;100.00
5883;BME280;2967;51.488;6.618;2023-03-21T23:56:26;100426.91;;;10.70;100.00
